Bokeelia, FL

6:10 AM EST on February 01, 2015 (GMT -0500)
Pine Island | Change Station
CLOSE
Current Station
Personal Weather Station
Location: Bokeelia, FL
Elevation: 26 ft
Nearby Weather Stations

Elev 26 ft 26.68 °N, 82.15 °W | Updated 13 days ago

Partly Cloudy
Partly Cloudy
55 °F
Feels Like 55 °F
N
12
Wind Variable Wind from East
Gusts 17 mph

Today
High -- | Low -- °F
--% Chance of Precip.
Yesterday
High -- | Low -- °F
Precip. -- in
7:13 AM 6:10 PM
Waxing Gibbous, 94% visible
Pressure 30.21 in
Visibility 10.0 miles
Clouds Clear
Dew Point 52 °F
Humidity 85%
Rainfall -999.00 in
Snow Depth Not available.
UV 0 out of 12
Pollen 9.20 out of 12
Air Quality Not available.
Flu Activity Not available.
METAR KFMY 011053Z AUTO 07003KT 10SM CLR 12/10 A3020 RMK AO2 SLP229 T01170100

More Conditions Fewer Conditions

Pressure 30.21 in
Visibility 10.0 miles
Clouds Clear
Dew Point 52 °F
Humidity 85%
Rainfall -999.00 in
Snow Depth Not available.
UV 0 out of 12
Pollen 9.20 out of 12
Air Quality Not available.
Flu Activity Not available.
METAR KFMY 011053Z AUTO 07003KT 10SM CLR 12/10 A3020 RMK AO2 SLP229 T01170100

More Conditions Fewer Conditions

10-Day Weather Forecast

Almanac

Astronomy

Feb. 01, 2015 Rise Set
Actual Time
Civil Twilight
Nautical Twilight
Astronomical Twilight
Moon
Length of Visible Light
Length of Day
Tomorrow will be .
, % of the Moon is Illuminated

Today's Extremes

State Highs State Lows

Community

WunderPhotos

Upload Photos

1,792,345 photos uploaded!

WunderBlogs® & News

Nearby

Air Quality

  Air Quality AQ Index Pollutant
Not available.

Snow Depth

Station Depth Elevation

Earthquake Activity

City Distance Mag. Time & Date
Minimum magnitude displayed is 2.5.

Coastal Water Temperatures

Place Temperature

Nearby Weather Stations